Latest Coastal Weather Observations for Proserpine

IDQ60701

Issued at 8:21 pm EST Monday 14 October 2019 (issued every 10 minutes, with the page automatically refreshed every 10 minutes)

About coastal observations | Map of coastal stations | Coastal observations for QLD | Marine services | Other Formats
Station Details ID: 033247 Name: PROSERPINE AIRPORT Lat: -20.49 Lon: 148.56 Height: 19.7 m
Data from the previous 72 hours. | See also: Recent months at Proserpine
Date/Time
EST
Wind Sea
Height
m
Swell Vis
km
Cloud Weather Temp
°C
Press
hPa
Rain since
9am
mm
Dir  Spd
kts
Gust
kts
Height
m
Period
s
Dir
14/08:00pm CALM 0 0 - - - - - - - 22.1 1015.7 0.0
14/07:30pm N 3 5 - - - - - Partly cloudy - 22.6 1015.4 0.0
14/07:00pm N 5 7 - - - - - Cloudy - 23.4 1015.0 0.0
14/06:30pm N 6 8 - - - - - Cloudy - 24.1 1014.8 0.0
14/06:00pm N 6 9 - - - - - Cloudy - 24.8 1014.4 0.0
14/05:30pm N 8 12 - - - - - Partly cloudy - 25.6 1014.2 0.0
14/05:00pm NNE 9 13 - - - - - Partly cloudy - 26.1 1013.8 0.0
14/04:30pm NNE 8 12 - - - - - Partly cloudy - 27.2 1013.5 0.0
14/04:00pm N 10 13 - - - - - - - 27.5 1013.5 0.0
14/03:30pm N 10 14 - - - - - Partly cloudy - 28.4 1013.5 0.0
14/03:00pm N 11 15 - - - - - Cloudy - 28.2 1013.7 0.0
14/02:30pm NNE 10 15 - - - - - Cloudy - 28.5 1013.8 0.0
14/02:00pm NNE 7 12 - - - - - Partly cloudy - 28.8 1014.0 0.0
14/01:30pm NE 8 21 - - - - - Partly cloudy - 30.5 1014.3 0.0
14/01:00pm ENE 10 18 - - - - - - - 29.7 1014.6 0.0
14/12:30pm ENE 7 13 - - - - - Partly cloudy - 29.7 1015.3 0.0
14/12:00pm ENE 7 13 - - - - - Mostly cloudy - 28.5 1016.1 0.0
14/11:30am ENE 9 13 - - - - - - - 28.7 1016.6 0.0
14/11:00am ENE 8 13 - - - - - Partly cloudy - 29.0 1017.0 0.0
14/10:30am SSE 3 6 - - - - - - - 29.8 1017.3 0.0
14/10:00am NNE 5 9 - - - - - Partly cloudy - 27.9 1017.6 0.0
14/09:30am NNW 5 7 - - - - - Partly cloudy - 27.6 1017.8 0.0
14/09:00am NNE 4 7 - - - - - Partly cloudy - 26.5 1018.1 0.0
14/08:45am ENE 4 7 - - - - - Partly cloudy - 25.3 1018.3 0.0
14/08:30am ENE 3 5 - - - - - Partly cloudy - 25.9 1018.2 0.0
14/08:28am E 3 5 - - - - - Partly cloudy - 25.7 1018.2 0.0
14/08:00am SE 4 6 - - - - - - - 24.7 1018.1 0.0
14/07:30am S 4 5 - - - - - Partly cloudy - 22.3 1018.0 0.0
14/07:00am SSW 3 4 - - - - - - - 20.6 1017.7 0.0
14/06:30am SSW 2 4 - - - - - - - 19.1 1017.2 0.0
14/06:08am SW 2 3 - - - - - Partly cloudy - 17.8 1017.0 0.0
14/06:00am SW 2 3 - - - - - Mostly cloudy - 17.3 1016.8 0.0
14/05:34am SSW 3 4 - - - - - Partly cloudy - 17.6 1016.7 0.0
14/05:30am SSW 2 4 - - - - - Partly cloudy - 17.8 1016.6 0.0
14/05:00am SSW 3 4 - - - - - Partly cloudy - 18.0 1016.1 0.0
14/04:30am SSW 3 4 - - - - - - - 18.1 1015.8 0.0
14/04:00am SW 3 4 - - - - - Partly cloudy - 18.0 1015.8 0.0
14/03:57am SW 3 4 - - - - - Partly cloudy - 17.9 1015.8 0.0
14/03:30am SW 2 4 - - - - - Partly cloudy - 18.0 1015.6 0.0
14/03:26am SW 2 4 - - - - - Partly cloudy - 17.9 1015.6 0.0
14/03:00am SW 2 4 - - - - - Mostly clear - 17.7 1015.5 0.0
14/02:57am SW 3 5 - - - - - Partly cloudy - 17.8 1015.5 0.0
14/02:30am SW 2 4 - - - - - Partly cloudy - 17.9 1015.5 0.0
14/02:27am SW 1 4 - - - - - Partly cloudy - 18.1 1015.5 0.0
14/02:00am CALM 0 0 - - - - - Partly cloudy - 17.7 1015.6 0.0
14/01:30am CALM 0 0 - - - - - Partly cloudy - 18.0 1016.0 0.0
14/01:00am CALM 0 0 - - - - - - - 18.1 1016.3 0.0
14/12:30am CALM 0 0 - - - - - Partly cloudy - 18.4 1016.3 0.0
14/12:22am CALM 0 0 - - - - - Partly cloudy - 18.4 1016.4 0.0
14/12:10am CALM 0 0 - - - - - Partly cloudy - 18.5 1016.5 0.0
14/12:00am CALM 0 0 - - - - - Mostly clear - 18.5 1016.5 0.0
 
Date/Time
EST
Wind Sea
Height
m
Swell Vis
km
Cloud Weather Temp
°C
Press
hPa
Rain since
9am
mm
Dir  Spd
kts
Gust
kts
Height
m
Period
s
Dir
13/11:30pm CALM 0 0 - - - - - - - 18.7 1016.7 0.0
13/11:00pm SE 3 4 - - - - - - - 19.6 1016.7 0.0
13/10:30pm CALM 0 0 - - - - - - - 19.6 1016.5 0.0
13/10:00pm SSW 4 5 - - - - - - - 19.8 1016.4 0.0
13/09:30pm SW 3 5 - - - - - - - 20.1 1016.3 0.0
13/09:00pm CALM 0 0 - - - - - - - 21.3 1015.8 0.0
13/08:30pm NNW 1 4 - - - - - - - 21.6 1015.4 0.0
13/08:00pm CALM 0 0 - - - - - - - 22.2 1015.0 0.0
13/07:30pm N 5 6 - - - - - - - 22.9 1014.6 0.0
13/07:00pm N 4 6 - - - - - - - 23.6 1014.3 0.0
13/06:30pm NNE 6 7 - - - - - - - 24.3 1013.8 0.0
13/06:00pm NNE 6 8 - - - - - - - 25.4 1013.3 0.0
13/05:30pm N 8 12 - - - - - - - 26.1 1012.8 0.0
13/05:00pm N 9 15 - - - - - - - 28.1 1012.3 0.0
13/04:30pm NNE 10 14 - - - - - - - 29.0 1012.2 0.0
13/04:00pm NNE 11 15 - - - - - - - 29.0 1012.1 0.0
13/03:30pm N 11 16 - - - - - - - 29.9 1012.1 0.0
13/03:00pm NNE 10 16 - - - - - Mostly clear - 30.9 1012.2 0.0
13/02:30pm NE 10 17 - - - - - Partly cloudy - 30.6 1012.3 0.0
13/02:12pm E 11 25 - - - - - - - 32.4 1012.2 0.0
13/02:00pm E 11 16 - - - - - - - 33.1 1012.6 0.0
13/01:30pm ENE 11 17 - - - - - - - 31.6 1012.8 0.0
13/01:00pm ENE 11 18 - - - - - Partly cloudy - 31.5 1013.1 0.0
13/12:30pm NE 7 14 - - - - - - - 31.3 1013.7 0.0
13/12:00pm NE 7 12 - - - - - - - 31.3 1014.2 0.0
13/11:30am NE 9 13 - - - - - - - 30.5 1014.6 0.0
13/11:00am NNE 8 17 - - - - - Partly cloudy - 31.0 1015.0 0.0
13/10:30am N 7 13 - - - - - Partly cloudy - 28.9 1015.5 0.0
13/10:00am NNW 5 9 - - - - - Partly cloudy - 28.3 1016.1 0.0
13/09:30am N 8 11 - - - - - Partly cloudy - 27.3 1016.4 0.0
13/09:00am N 4 8 - - - - - Mostly clear Recent precip. 25.3 1016.3 0.2
13/08:30am NE 3 5 - - - - - - - 24.2 1016.2 0.2
13/08:00am N 1 4 - - - - - - - 21.3 1016.2 0.0
13/07:53am NNW 1 3 - - - - - Partly cloudy - 21.3 1016.1 0.0
13/07:30am CALM 0 3 - - - - - Partly cloudy - 20.4 1015.7 0.0
13/07:00am SSW 2 4 - - - - - Cloudy - 18.9 1015.2 0.0
13/06:30am CALM 0 0 - - - - - Cloudy - 17.9 1014.6 0.0
13/06:00am CALM 0 2 - - - - - Cloudy - 17.3 1014.3 0.0
13/05:30am N 3 5 - - - - - Cloudy - 17.4 1013.8 0.0
13/05:00am NNW 3 4 - - - - - Partly cloudy - 17.3 1013.7 0.0
13/04:30am N 2 4 - - - - - Cloudy - 17.8 1013.4 0.0
13/04:05am CALM 0 0 - - - - - Partly cloudy - 18.0 1013.2 0.0
13/04:00am CALM 0 0 - - - - - Partly cloudy - 17.7 1013.1 0.0
13/03:30am CALM 0 0 - - - - - - - 18.2 1013.0 0.0
13/03:00am SSW 4 6 - - - - - - - 18.2 1012.9 0.0
13/02:30am SSW 4 5 - - - - - - - 18.1 1012.9 0.0
13/02:00am WSW 2 4 - - - - - - - 18.2 1012.8 0.0
13/01:30am NW 1 3 - - - - - - - 18.3 1013.0 0.0
13/01:00am CALM 0 3 - - - - - Partly cloudy - 19.0 1013.1 0.0
13/12:30am CALM 0 0 - - - - - - - 18.9 1013.4 0.0
13/12:00am NNW 3 4 - - - - - - - 19.3 1013.5 0.0
 
Date/Time
EST
Wind Sea
Height
m
Swell Vis
km
Cloud Weather Temp
°C
Press
hPa
Rain since
9am
mm
Dir  Spd
kts
Gust
kts
Height
m
Period
s
Dir
12/11:30pm NW 3 4 - - - - - - - 19.3 1013.5 0.0
12/11:00pm SSW 4 5 - - - - - - - 19.7 1013.3 0.0
12/10:30pm CALM 0 0 - - - - - - - 20.1 1013.4 0.0
12/10:00pm CALM 0 0 - - - - - - - 20.1 1013.3 0.0
12/09:30pm CALM 0 3 - - - - - - - 21.1 1013.1 0.0
12/09:00pm SSE 1 3 - - - - - - - 21.2 1012.9 0.0
12/08:30pm SE 5 7 - - - - - - - 21.5 1012.4 0.0
12/08:00pm NNE 1 3 - - - - - - - 22.4 1011.8 0.0
12/07:30pm NNW 4 5 - - - - - - - 23.3 1011.2 0.0
12/07:00pm NNW 3 5 - - - - - - - 23.8 1010.9 0.0
12/06:30pm N 6 8 - - - - - - - 24.3 1010.4 0.0
12/06:00pm NNE 6 8 - - - - - - - 25.0 1009.8 0.0
12/05:30pm NNE 9 12 - - - - - - - 25.9 1009.0 0.0
12/05:00pm N 10 15 - - - - - Partly cloudy - 26.8 1008.4 0.0
12/04:30pm NE 13 19 - - - - - Partly cloudy - 28.6 1007.7 0.0
12/04:00pm N 12 17 - - - - - Partly cloudy - 30.6 1007.3 0.0
12/03:30pm NNW 11 15 - - - - - Partly cloudy - 31.0 1007.1 0.0
12/03:00pm NNW 12 17 - - - - - - - 31.5 1007.2 0.0
12/02:30pm NNE 9 13 - - - - - Partly cloudy - 31.7 1007.5 0.0
12/02:00pm N 8 12 - - - - - Partly cloudy - 29.8 1007.9 0.0
12/01:30pm WNW 7 14 - - - - - Partly cloudy - 31.0 1008.2 0.0
12/01:00pm NNW 5 10 - - - - - Partly cloudy - 30.3 1008.6 0.0
12/12:30pm W 6 11 - - - - - Partly cloudy - 30.5 1009.1 0.0
12/12:00pm WNW 6 11 - - - - - Cloudy - 30.1 1009.6 0.0
12/11:30am NNW 6 10 - - - - - Partly cloudy - 31.3 1010.2 0.0
12/11:00am W 8 13 - - - - - Partly cloudy - 29.7 1010.7 0.0
12/10:30am WNW 8 14 - - - - - Partly cloudy - 28.0 1011.2 0.0
12/10:00am NW 8 13 - - - - - Partly cloudy - 27.4 1011.6 0.0
12/09:30am WNW 10 13 - - - - - Partly cloudy - 27.5 1011.8 0.0
12/09:00am W 10 14 - - - - - Cloudy - 26.0 1011.9 29.8
12/08:30am NW 11 17 - - - - - - - 25.2 1012.0 29.8
12/08:00am NW 5 7 - - - - - - - 23.3 1012.1 29.8
12/07:30am NNW 4 5 - - - - - - - 20.6 1012.0 29.8
12/07:00am NNW 1 4 - - - - - - - 19.2 1011.7 29.8
12/06:30am CALM 0 0 - - - - - - - 18.0 1011.1 29.8
12/06:17am NW 2 4 - - - - - Partly cloudy - 17.4 1010.9 29.8
12/06:00am NW 2 4 - - - - - Partly cloudy - 16.6 1010.9 29.8
12/05:46am WNW 1 3 - - - - - Partly cloudy - 16.5 1010.9 29.8
12/05:30am CALM 0 0 - - - - - - - 16.3 1010.7 29.8
12/05:00am CALM 0 0 - - - - - Partly cloudy - 16.9 1010.4 29.8
12/04:30am CALM 0 0 - - - - - - - 16.9 1010.1 29.8
12/04:00am CALM 0 0 - - - - - - - 17.5 1009.9 29.8
12/03:30am CALM 0 0 - - - - - Partly cloudy - 17.7 1010.0 29.8
12/03:00am WNW 1 3 - - - - - Mostly clear Recent precip. 17.8 1010.0 29.8
12/02:30am N 3 4 - - - - - Partly cloudy - 17.9 1010.2 29.6
12/02:00am CALM 0 0 - - - - - Partly cloudy - 18.2 1010.5 29.6
12/01:30am NNE 4 7 - - - - - Partly cloudy - 18.4 1011.1 29.6
12/01:00am NW 3 5 - - - - - Partly cloudy - 18.9 1011.5 29.6
12/12:30am WSW 2 5 - - - - - Partly cloudy - 18.8 1011.7 29.6
12/12:21am W 3 5 - - - - - Partly cloudy - 18.8 1011.8 29.6
12/12:00am SSW 5 7 - - - - - Cloudy - 18.5 1012.1 29.6
 
Date/Time
EST
Wind Sea
Height
m
Swell Vis
km
Cloud Weather Temp
°C
Press
hPa
Rain since
9am
mm
Dir  Spd
kts
Gust
kts
Height
m
Period
s
Dir
11/11:57pm SSW 5 7 - - - - - Partly cloudy - 18.4 1012.1 29.6
11/11:30pm CALM 0 0 - - - - - Partly cloudy - 18.0 1011.9 29.6
11/11:00pm SSW 2 3 - - - - - Partly cloudy - 18.0 1011.9 29.6
11/10:30pm SSW 4 5 - - - - - - - 18.0 1012.1 29.6
11/10:00pm SSW 3 4 - - - - - - - 18.0 1012.4 29.6
11/09:30pm SSE 2 5 - - - - - - - 18.2 1012.5 29.6
11/09:00pm SW 2 5 - - - - - Mostly clear - 18.2 1012.4 29.6
11/08:30pm S 6 7 - - - - - Partly cloudy - 18.5 1012.0 29.6

Other formats

Comma delimited format used in spreadsheet applications
http://www.bom.gov.au/fwo/IDQ60701/IDQ60701.94365.axf

JavaScript Object Notation format (JSON) in row-major order
http://www.bom.gov.au/fwo/IDQ60701/IDQ60701.94365.json

Data quality

Most of these data are generated automatically and are frequently updated. Quality checks on data are not normally performed. It is possible for incorrect values to appear. Refer to information at About Latest Weather Observations and please check the disclaimer before using these data.